Monday, December 18, 2017, 12:54 PM GMT
Back to Local

CYZX, Greenwood, N. S.

Location: , , Canada Lat: 44.983
Local Time: 12:54 PM GMT (12:54 GMT) Lon: -64.917
Time Zone: GMT Elev: 91 ft

Show me the last for .
Show Decoded

2017-12-18 12:00 METAR CYZX 181200Z 00000KT 15SM BKN017 M12/M15 A3018 RMK SC7 WNDY HILL UNAVBL
                 SLP222 =
2017-12-18 11:00 METAR CYZX 181100Z 25002KT 15SM BKN019 M12/M14 A3019 RMK SC6 WNDY HILL UNAVBL
                 SLP226 =
2017-12-18 10:40 METAR CYZX 181040Z 25002KT 15SM BKN019 M12/M14 A3020 RMK SC5 WNDY HILL UNAVBL
                 SLP229 =
2017-12-18 10:00 METAR CYZX 181000Z 25004KT 15SM FEW028 M13/M16 A3019 RMK SC1 WNDY HILL UNAVBL
                 SLP226 =
2017-12-18 09:00 METAR CYZX 180900Z 21003KT 15SM SKC M12/M15 A3018 RMK WNDY HILL UNAVBL SLP223 =
2017-12-18 08:00 METAR CYZX 180800Z 27002KT 15SM SKC M13/M16 A3017 RMK WNDY HILL UNAVBL SLP220 =
2017-12-18 07:00 METAR CYZX 180700Z 20002KT 15SM FEW028 M13/M16 A3018 RMK SC1 WNDY HILL UNAVBL
                 SLP221 =
2017-12-18 06:00 METAR CYZX 180600Z 23008KT 15SM FEW028 M11/M14 A3017 RMK SC1 WNDY HILL UNAVBL
                 SLP220 =
2017-12-18 05:00 METAR CYZX 180500Z 26005KT 15SM FEW028 M11/M14 A3016 RMK SC1 WNDY HILL UNAVBL
                 SLP217 =
2017-12-18 04:00 METAR CYZX 180400Z 31004KT 15SM FEW028 M10/M14 A3017 RMK SC2 WNDY HILL UNAVBL
                 SLP218 =
2017-12-18 03:00 METAR CYZX 180300Z 31006KT 15SM SCT026 M09/M13 A3017 RMK SC4 WNDY HILL UNAVBL
                 SLP218 =
2017-12-18 02:00 METAR CYZX 180200Z 31009G15KT 15SM SCT026 M09/M14 A3017 RMK SC4 WNDY HILL UNAVBL
                 SLP218 =
2017-12-18 01:00 METAR CYZX 180100Z 31014KT 15SM SCT026 M09/M14 A3014 RMK SC3 WNDY HILL UNAVBL
                 SLP210 =
2017-12-18 00:00 METAR CYZX 180000Z 30011G16KT 15SM SCT028 M09/M12 A3015 RMK SC4 WNDY HILL UNAVBL
                 SLP211 =
2017-12-17 23:00 METAR CYZX 172300Z 31013G18KT 15SM FEW030 M08/M14 A3011 RMK SC2 WNDY HILL UNAVBL
                 SLP200 =
2017-12-17 22:00 METAR CYZX 172200Z 30013KT 15SM FEW030 M07/M13 A3009 RMK SC2 WNDY HILL UNAVBL
                 SLP192 =
2017-12-17 21:00 METAR CYZX 172100Z 30016KT 15SM FEW040 M06/M13 A3006 RMK SC2 WNDY HILL UNAVBL
                 SLP183 =
2017-12-17 20:00 METAR CYZX 172000Z 28015KT 15SM FEW040 M06/M12 A3005 RMK SC2 WNDY HILL UNAVBL
                 SLP178 =
2017-12-17 19:00 METAR CYZX 171900Z 28015G21KT 15SM SCT035 M05/M12 A3003 RMK SC3 WNDY HILL UNAVBL
                 SLP173 =
2017-12-17 18:00 METAR CYZX 171800Z 28013G20KT 15SM FEW025 M05/M10 A3002 RMK SC2 WNDY HILL UNAVBL
                 SLP170 =
2017-12-17 17:00 METAR CYZX 171700Z 29014G21KT 15SM FEW025 M05/M12 A3003 RMK SC2 WNDY HILL UNAVBL
                 SLP173 =
2017-12-17 16:00 METAR CYZX 171600Z 28016KT 15SM SCT025 M07/M12 A3004 RMK SC3 WNDY HILL UNAVBL
                 SLP176 =
2017-12-17 15:00 METAR CYZX 171500Z 28018KT 15SM SCT020 M07/M11 A3006 RMK SC4 WNDY HILL UNAVBL
                 SLP181 =
2017-12-17 14:00 METAR CYZX 171400Z 27014G19KT 15SM FEW020 M08/M11 A3005 RMK SC2 WNDY HILL UNAVBL
                 SLP180 =
2017-12-17 13:00 METAR CYZX 171300Z 28018G24KT 15SM FEW020 M08/M12 A3004 RMK SC2 WNDY HILL UNAVBL
                 SLP175 =

Support USWX by starting your Amazon purchase here.